createdAt,value
2023-05-24T00:02:14.295Z,99.51
2023-05-24T00:04:42.362Z,99.89
2023-05-24T00:07:09.583Z,100.00
2023-05-24T00:09:36.642Z,100.00
2023-05-24T00:12:03.756Z,100.00
2023-05-24T00:14:30.889Z,100.00
2023-05-24T00:16:58.200Z,100.00
2023-05-24T00:19:25.947Z,100.00
2023-05-24T00:21:53.044Z,100.00
2023-05-24T00:24:20.035Z,100.00
2023-05-24T00:26:47.253Z,100.00
2023-05-24T00:29:14.497Z,100.00
2023-05-24T00:31:41.998Z,100.00
2023-05-24T00:34:10.253Z,100.00
2023-05-24T00:36:38.454Z,100.00
2023-05-24T00:39:06.073Z,100.00
2023-05-24T00:41:33.590Z,100.00
2023-05-24T00:44:00.699Z,100.00
2023-05-24T00:46:32.188Z,100.00
2023-05-24T00:49:00.587Z,100.00
2023-05-24T00:51:28.544Z,100.00
2023-05-24T00:53:56.430Z,100.00
2023-05-24T00:56:23.808Z,100.00
2023-05-24T00:58:54.889Z,100.00
2023-05-24T01:01:26.428Z,100.00
2023-05-24T01:03:54.497Z,100.00
2023-05-24T01:06:22.269Z,100.00
2023-05-24T01:09:01.655Z,100.00
2023-05-24T01:12:06.381Z,100.00
2023-05-24T01:14:39.463Z,100.00
2023-05-24T01:17:10.045Z,100.00
2023-05-24T01:19:49.205Z,100.00
2023-05-24T01:22:45.220Z,100.00
2023-05-24T01:25:37.408Z,100.00
2023-05-24T01:28:06.461Z,100.00
2023-05-24T01:30:34.516Z,100.00
2023-05-24T01:33:01.802Z,100.00
2023-05-24T01:35:28.869Z,100.00
2023-05-24T01:37:55.933Z,100.00
2023-05-24T01:40:23.143Z,100.00
2023-05-24T01:43:08.350Z,100.00
2023-05-24T01:45:38.352Z,100.00
2023-05-24T01:48:18.967Z,100.00
2023-05-24T01:50:52.637Z,100.00
2023-05-24T01:53:26.375Z,100.00
2023-05-24T01:55:57.425Z,100.00
2023-05-24T01:58:26.497Z,100.00
2023-05-24T02:00:53.967Z,100.00
2023-05-24T02:03:21.938Z,100.00
2023-05-24T02:05:49.068Z,100.00
2023-05-24T02:08:16.164Z,99.86
2023-05-24T02:10:43.492Z,100.00
2023-05-24T02:13:11.616Z,100.00
2023-05-24T02:15:38.717Z,100.00
2023-05-24T02:18:08.273Z,100.00
2023-05-24T02:20:39.062Z,100.00
2023-05-24T02:23:06.940Z,99.98
2023-05-24T02:25:34.154Z,99.88
2023-05-24T02:28:01.433Z,99.75
2023-05-24T02:30:28.571Z,99.71
2023-05-24T02:32:56.309Z,99.91
2023-05-24T02:35:23.457Z,99.92
2023-05-24T02:37:50.490Z,99.72
2023-05-24T02:40:17.718Z,99.56
2023-05-24T02:42:44.827Z,99.86
2023-05-24T02:45:11.865Z,99.96
2023-05-24T02:47:38.971Z,99.65
2023-05-24T02:50:07.142Z,99.40
2023-05-24T02:52:34.181Z,99.21
2023-05-24T02:55:01.347Z,99.32
2023-05-24T02:57:28.988Z,99.42
2023-05-24T02:59:56.317Z,99.67
2023-05-24T03:02:23.559Z,99.49
2023-05-24T03:04:50.619Z,99.28
2023-05-24T03:07:17.717Z,99.42
2023-05-24T03:09:44.887Z,99.18
2023-05-24T03:12:12.954Z,99.04
2023-05-24T03:14:40.181Z,98.87
2023-05-24T03:17:07.290Z,98.83
2023-05-24T03:19:35.277Z,99.30
2023-05-24T03:22:02.369Z,99.13
2023-05-24T03:24:29.410Z,98.78
2023-05-24T03:26:57.550Z,98.94
2023-05-24T03:29:24.714Z,98.96
2023-05-24T03:31:53.232Z,99.27
2023-05-24T03:34:20.577Z,99.04
2023-05-24T03:36:47.630Z,98.21
2023-05-24T03:39:14.642Z,98.39
2023-05-24T03:42:00.202Z,98.89
2023-05-24T03:44:27.338Z,98.70
2023-05-24T03:46:54.370Z,98.68
2023-05-24T03:49:21.400Z,98.33
2023-05-24T03:51:49.324Z,98.58
2023-05-24T03:54:18.063Z,98.04
2023-05-24T03:56:45.201Z,97.83
2023-05-24T03:59:12.204Z,97.51
2023-05-24T04:01:39.646Z,98.13
2023-05-24T04:04:06.760Z,97.16
2023-05-24T04:06:33.824Z,97.52
2023-05-24T04:09:02.111Z,96.67
2023-05-24T04:11:29.937Z,96.49
2023-05-24T04:14:00.692Z,97.14
2023-05-24T04:16:29.390Z,96.41
2023-05-24T04:18:58.244Z,96.18
2023-05-24T04:21:25.418Z,96.33
2023-05-24T04:23:54.333Z,96.36
2023-05-24T04:26:21.468Z,96.08
2023-05-24T04:28:48.873Z,95.12
2023-05-24T04:31:16.571Z,93.56
2023-05-24T04:33:43.954Z,93.11
2023-05-24T04:36:12.145Z,93.16
2023-05-24T04:38:41.222Z,92.30
2023-05-24T04:41:08.409Z,91.53
2023-05-24T04:43:35.493Z,91.48
2023-05-24T04:46:02.742Z,91.34
2023-05-24T04:48:30.265Z,90.83
2023-05-24T04:51:01.207Z,90.77
2023-05-24T04:53:28.238Z,90.94
2023-05-24T04:55:55.312Z,91.25
2023-05-24T04:58:22.424Z,91.50
2023-05-24T05:00:49.554Z,91.84
2023-05-24T05:03:16.794Z,91.51
2023-05-24T05:05:44.646Z,91.97
2023-05-24T05:08:11.648Z,91.83
2023-05-24T05:10:38.703Z,91.72
2023-05-24T05:13:06.073Z,91.84
2023-05-24T05:15:33.557Z,91.77
2023-05-24T05:18:00.848Z,92.09
2023-05-24T05:20:27.934Z,91.92
2023-05-24T05:22:54.989Z,91.53
2023-05-24T05:25:22.234Z,91.33
2023-05-24T05:27:49.335Z,91.54
2023-05-24T05:30:16.564Z,91.69
2023-05-24T05:32:43.935Z,91.21
2023-05-24T05:35:11.211Z,91.25
2023-05-24T05:37:38.262Z,91.26
2023-05-24T05:40:05.662Z,91.50
2023-05-24T05:42:32.761Z,91.70
2023-05-24T05:44:59.838Z,91.81
2023-05-24T05:47:26.970Z,90.52
2023-05-24T05:49:54.066Z,89.25
2023-05-24T05:52:21.209Z,87.99
2023-05-24T05:54:48.240Z,85.54
2023-05-24T05:57:16.474Z,84.88
2023-05-24T05:59:43.561Z,84.47
2023-05-24T06:02:12.936Z,81.89
2023-05-24T06:04:40.002Z,84.68
2023-05-24T06:07:07.137Z,84.28
2023-05-24T06:09:34.261Z,84.71
2023-05-24T06:12:01.417Z,85.23
2023-05-24T06:14:28.469Z,83.55
2023-05-24T06:16:56.836Z,81.85
2023-05-24T06:19:25.264Z,81.99
2023-05-24T06:21:52.306Z,83.04
2023-05-24T06:24:22.961Z,82.78
2023-05-24T06:26:53.179Z,83.03
2023-05-24T06:29:22.117Z,82.05
2023-05-24T06:31:50.388Z,81.99
2023-05-24T06:34:21.537Z,80.86
2023-05-24T06:36:51.613Z,79.30
2023-05-24T06:39:19.156Z,77.54
2023-05-24T06:41:47.408Z,77.08
2023-05-24T06:44:14.793Z,75.16
2023-05-24T06:46:42.113Z,73.72
2023-05-24T06:49:09.268Z,71.47
2023-05-24T06:51:38.121Z,69.83
2023-05-24T06:54:05.220Z,67.19
2023-05-24T06:56:32.239Z,67.45
2023-05-24T06:59:00.266Z,65.94
2023-05-24T07:01:27.784Z,64.54
2023-05-24T07:03:55.253Z,65.47
2023-05-24T07:06:22.517Z,64.99
2023-05-24T07:08:49.520Z,65.12
2023-05-24T07:11:16.792Z,65.38
2023-05-24T07:13:43.877Z,64.94
2023-05-24T07:16:11.950Z,66.57
2023-05-24T07:18:41.892Z,65.46
2023-05-24T07:21:09.177Z,64.12
2023-05-24T07:23:37.157Z,63.57
2023-05-24T07:26:04.939Z,64.97
2023-05-24T07:28:32.877Z,65.26
2023-05-24T07:31:00.255Z,65.98
2023-05-24T07:33:27.366Z,64.25
2023-05-24T07:35:54.862Z,62.93
2023-05-24T07:38:22.087Z,64.82
2023-05-24T07:40:49.279Z,62.87
2023-05-24T07:43:16.370Z,63.58
2023-05-24T07:45:43.596Z,61.63
2023-05-24T07:48:11.056Z,66.03
2023-05-24T07:50:38.708Z,69.17
2023-05-24T07:53:06.452Z,66.84
2023-05-24T07:55:33.772Z,65.30
2023-05-24T07:58:00.885Z,64.76
2023-05-24T08:00:27.924Z,62.98
2023-05-24T08:02:55.025Z,64.38
2023-05-24T08:05:22.327Z,65.20
2023-05-24T08:07:49.386Z,64.43
2023-05-24T08:10:16.910Z,61.99
2023-05-24T08:12:43.976Z,64.50
2023-05-24T08:15:11.230Z,64.73
2023-05-24T08:17:39.368Z,62.42
2023-05-24T08:20:09.116Z,62.86
2023-05-24T08:22:37.586Z,61.40
2023-05-24T08:25:06.368Z,61.30
2023-05-24T08:27:33.802Z,60.44
2023-05-24T08:30:02.090Z,62.37
2023-05-24T08:32:29.129Z,64.60
2023-05-24T08:35:03.744Z,60.42
2023-05-24T08:37:43.969Z,60.17
2023-05-24T08:40:11.173Z,61.49
2023-05-24T08:42:39.885Z,58.57
2023-05-24T08:45:12.506Z,59.82
2023-05-24T08:47:40.847Z,59.05
2023-05-24T08:50:08.930Z,56.30
2023-05-24T08:52:36.598Z,58.81
2023-05-24T08:55:07.045Z,57.58
2023-05-24T08:57:35.097Z,57.45
2023-05-24T09:00:02.236Z,58.11
2023-05-24T09:02:30.504Z,59.41
2023-05-24T09:04:58.729Z,57.54
2023-05-24T09:07:26.474Z,56.85
2023-05-24T09:10:05.414Z,55.98
2023-05-24T09:12:38.108Z,57.21
2023-05-24T09:15:07.793Z,57.92
2023-05-24T09:17:37.053Z,58.03
2023-05-24T09:20:07.342Z,56.78
2023-05-24T09:22:40.799Z,58.05
2023-05-24T09:25:10.041Z,58.69
2023-05-24T09:27:37.859Z,59.68
2023-05-24T09:30:10.613Z,58.72
2023-05-24T09:32:38.221Z,57.51
2023-05-24T09:35:09.711Z,58.80
2023-05-24T09:37:39.003Z,59.01
2023-05-24T09:40:11.081Z,59.60
2023-05-24T09:42:38.564Z,58.59
2023-05-24T10:18:10.609Z,73.41
2023-05-24T10:20:41.709Z,72.08
2023-05-24T10:23:11.132Z,70.39
2023-05-24T10:25:44.986Z,68.06
2023-05-24T10:28:15.343Z,66.82
2023-05-24T10:31:00.733Z,66.54
2023-05-24T10:33:28.803Z,69.54
2023-05-24T10:35:57.268Z,67.25
2023-05-24T10:38:25.121Z,65.50
2023-05-24T10:40:52.586Z,64.30
2023-05-24T10:43:21.587Z,64.29
2023-05-24T10:45:50.130Z,60.90
2023-05-24T10:48:17.868Z,58.15
2023-05-24T10:50:45.294Z,57.93
2023-05-24T10:53:17.706Z,57.91
2023-05-24T10:56:01.230Z,56.05
2023-05-24T10:58:46.433Z,56.71
2023-05-24T11:01:29.754Z,56.13
2023-05-24T11:04:18.434Z,53.86
2023-05-24T11:06:57.136Z,54.19
2023-05-24T11:09:25.569Z,53.60
2023-05-24T11:12:00.328Z,51.92
2023-05-24T11:14:29.398Z,53.35
2023-05-24T11:16:56.953Z,53.39
2023-05-24T11:19:29.828Z,52.30
2023-05-24T11:22:00.724Z,52.64
2023-05-24T11:24:29.238Z,52.08
2023-05-24T11:26:57.277Z,53.56
2023-05-24T11:29:24.482Z,53.51
2023-05-24T11:31:54.455Z,54.01
2023-05-24T11:34:22.279Z,54.58
2023-05-24T11:36:50.184Z,54.64
2023-05-24T11:39:18.132Z,56.12
2023-05-24T11:41:45.322Z,55.50
2023-05-24T11:44:12.499Z,55.58
2023-05-24T11:46:40.716Z,55.01
2023-05-24T11:49:12.556Z,55.44
2023-05-24T11:51:39.656Z,56.38
2023-05-24T11:54:06.683Z,55.58
2023-05-24T11:56:34.217Z,53.88
2023-05-24T11:59:15.635Z,54.19
2023-05-24T12:01:43.049Z,52.78
2023-05-24T12:04:10.853Z,52.07
2023-05-24T12:06:44.754Z,50.77
2023-05-24T12:09:15.729Z,50.83
2023-05-24T12:11:48.314Z,51.93
2023-05-24T12:14:16.959Z,54.83
2023-05-24T12:16:45.604Z,52.74
2023-05-24T12:19:31.389Z,52.00
2023-05-24T12:22:00.747Z,51.26
2023-05-24T12:24:28.662Z,51.07
2023-05-24T12:27:08.094Z,49.48
2023-05-24T12:29:37.988Z,46.39
2023-05-24T12:32:05.991Z,45.10
2023-05-24T12:34:33.142Z,44.18
2023-05-24T12:37:00.247Z,43.70
2023-05-24T12:39:35.296Z,42.30
2023-05-24T12:42:04.478Z,41.86
2023-05-24T12:44:35.699Z,39.67
2023-05-24T12:47:05.312Z,41.93
2023-05-24T12:49:32.687Z,42.62
2023-05-24T12:52:00.054Z,43.44
2023-05-24T12:54:28.912Z,45.01
2023-05-24T12:56:57.812Z,43.74
2023-05-24T12:59:26.483Z,45.40
2023-05-24T13:01:53.965Z,43.42
2023-05-24T13:04:24.561Z,43.04
2023-05-24T13:06:51.679Z,42.23
2023-05-24T13:09:21.718Z,42.65
2023-05-24T13:11:49.315Z,41.69
2023-05-24T13:14:17.041Z,42.54
2023-05-24T13:16:44.587Z,41.83
2023-05-24T13:19:12.625Z,43.90
2023-05-24T13:21:40.491Z,42.62
2023-05-24T13:24:07.933Z,43.52
2023-05-24T13:26:37.906Z,43.70
2023-05-24T13:31:41.251Z,43.77
2023-05-24T13:34:09.357Z,43.61
2023-05-24T13:36:38.120Z,42.52
2023-05-24T13:39:15.625Z,41.45
2023-05-24T13:41:44.477Z,39.39
2023-05-24T13:44:13.296Z,37.33
2023-05-24T13:46:41.039Z,37.50
2023-05-24T13:49:09.483Z,34.60
2023-05-24T13:51:37.421Z,33.27
2023-05-24T13:54:07.430Z,33.21
2023-05-24T13:56:35.711Z,33.97
2023-05-24T13:59:04.626Z,33.95
2023-05-24T14:01:32.646Z,34.19
2023-05-24T14:04:02.869Z,32.80
2023-05-24T14:06:30.164Z,31.17
2023-05-24T14:08:57.288Z,30.13
2023-05-24T14:11:25.657Z,31.57
2023-05-24T14:16:24.198Z,36.54
2023-05-24T14:18:51.892Z,38.98
2023-05-24T14:21:21.868Z,40.20
2023-05-24T14:23:50.239Z,41.14
2023-05-24T14:26:18.942Z,42.69
2023-05-24T14:28:46.319Z,45.21
2023-05-24T14:31:13.450Z,45.69
2023-05-24T14:33:40.507Z,46.69
2023-05-24T14:36:08.178Z,46.54
2023-05-24T14:38:35.321Z,47.17
2023-05-24T14:41:03.026Z,47.53
2023-05-24T14:43:30.087Z,47.78
2023-05-24T14:45:57.178Z,49.42
2023-05-24T14:48:24.263Z,48.93
2023-05-24T14:50:51.483Z,47.82
2023-05-24T14:53:18.593Z,49.50
2023-05-24T14:55:45.881Z,48.63
2023-05-24T14:58:13.335Z,50.11
2023-05-24T15:00:41.807Z,50.79
2023-05-24T15:03:09.454Z,50.30
2023-05-24T15:05:37.226Z,49.64
2023-05-24T15:08:05.772Z,49.72
2023-05-24T15:10:33.598Z,49.78
2023-05-24T15:13:01.669Z,50.84
2023-05-24T15:15:28.900Z,50.96
2023-05-24T15:17:57.382Z,49.56
2023-05-24T15:22:52.585Z,49.39
2023-05-24T15:25:19.742Z,50.70
2023-05-24T15:27:47.768Z,51.40
2023-05-24T15:30:15.137Z,50.13
2023-05-24T15:32:42.194Z,50.83
2023-05-24T15:35:09.669Z,50.86
2023-05-24T15:37:36.716Z,51.38
2023-05-24T15:40:04.109Z,51.58
2023-05-24T15:42:32.339Z,51.03
2023-05-24T15:44:59.411Z,53.45
2023-05-24T15:47:29.306Z,52.94
2023-05-24T15:49:57.193Z,52.49
2023-05-24T15:52:24.408Z,51.47
2023-05-24T15:54:51.524Z,52.02
2023-05-24T15:57:18.727Z,52.57
2023-05-24T15:59:45.757Z,53.79
2023-05-24T16:02:12.865Z,52.96
2023-05-24T16:04:40.005Z,53.06
2023-05-24T16:07:07.417Z,53.38
2023-05-24T16:09:34.657Z,53.64
2023-05-24T16:12:01.801Z,53.86
2023-05-24T16:14:29.987Z,53.98
2023-05-24T16:16:59.002Z,53.41
2023-05-24T16:19:26.931Z,54.67
2023-05-24T16:21:54.052Z,54.95
2023-05-24T16:24:21.135Z,54.88
2023-05-24T16:26:48.174Z,54.40
2023-05-24T16:29:17.014Z,54.23
2023-05-24T16:31:44.115Z,54.69
2023-05-24T16:34:11.277Z,55.29
2023-05-24T16:36:38.416Z,54.98
2023-05-24T16:39:05.763Z,55.10
2023-05-24T16:41:37.806Z,55.37
2023-05-24T16:44:04.990Z,56.01
2023-05-24T16:46:32.772Z,55.71
2023-05-24T16:49:00.669Z,55.85
2023-05-24T16:51:27.692Z,56.90
2023-05-24T16:53:54.781Z,57.77
2023-05-24T16:56:23.284Z,57.45
2023-05-24T16:58:50.385Z,57.27
2023-05-24T17:01:17.608Z,58.74
2023-05-24T17:03:44.767Z,58.44
2023-05-24T17:06:11.969Z,57.96
2023-05-24T17:08:39.265Z,58.60
2023-05-24T17:11:06.766Z,60.06
2023-05-24T17:13:34.299Z,59.32
2023-05-24T17:16:03.808Z,59.59
2023-05-24T17:18:31.246Z,59.42
2023-05-24T17:21:00.207Z,58.83
2023-05-24T17:23:28.804Z,60.64
2023-05-24T17:25:55.899Z,60.35
2023-05-24T17:28:27.628Z,60.05
2023-05-24T17:30:59.349Z,60.06
2023-05-24T17:33:28.682Z,61.72
2023-05-24T17:35:56.816Z,62.75
2023-05-24T17:38:25.377Z,62.66
2023-05-24T17:40:59.776Z,64.22
2023-05-24T17:43:29.357Z,64.66
2023-05-24T17:46:04.296Z,65.90
2023-05-24T17:48:38.902Z,66.04
2023-05-24T17:51:07.908Z,65.53
2023-05-24T17:53:36.448Z,65.79
2023-05-24T17:56:05.117Z,66.60
2023-05-24T17:58:36.309Z,68.26
2023-05-24T18:01:05.586Z,68.21
2023-05-24T18:03:37.399Z,67.87
2023-05-24T18:06:07.099Z,66.88
2023-05-24T18:08:37.387Z,69.46
2023-05-24T18:11:08.636Z,70.64
2023-05-24T18:13:40.584Z,68.74
2023-05-24T18:16:10.486Z,68.79
2023-05-24T18:18:41.093Z,71.87
2023-05-24T18:21:09.696Z,73.58
2023-05-24T18:23:40.131Z,71.91
2023-05-24T18:26:09.400Z,72.28
2023-05-24T18:28:37.903Z,72.18
2023-05-24T18:31:08.540Z,72.71
2023-05-24T18:33:36.081Z,73.26
2023-05-24T18:36:06.905Z,72.11
2023-05-24T18:38:35.028Z,72.12
2023-05-24T18:41:05.904Z,72.38
2023-05-24T18:43:33.349Z,72.62
2023-05-24T18:46:00.501Z,71.75
2023-05-24T18:48:27.642Z,72.47
2023-05-24T18:50:55.087Z,72.15
2023-05-24T18:53:22.169Z,72.45
2023-05-24T18:55:49.275Z,73.65
2023-05-24T18:58:16.264Z,74.13
2023-05-24T19:00:43.537Z,73.80
2023-05-24T19:03:13.804Z,73.59
2023-05-24T19:05:43.510Z,73.79
2023-05-24T19:08:11.332Z,73.71
2023-05-24T19:10:38.453Z,73.17
2023-05-24T19:13:06.765Z,73.30
2023-05-24T19:15:35.814Z,74.30
2023-05-24T19:18:03.494Z,74.10
2023-05-24T19:20:30.660Z,73.69
2023-05-24T19:22:57.869Z,73.02
2023-05-24T19:25:24.888Z,72.50
2023-05-24T19:30:22.320Z,73.72
2023-05-24T19:32:49.436Z,72.91
2023-05-24T19:35:16.576Z,73.08
2023-05-24T19:37:43.886Z,73.85
2023-05-24T19:40:11.488Z,73.97
2023-05-24T19:42:38.536Z,73.07
2023-05-24T19:45:06.290Z,71.73
2023-05-24T19:47:33.298Z,70.87
2023-05-24T19:50:00.566Z,72.16
2023-05-24T19:52:27.609Z,74.35
2023-05-24T19:54:54.722Z,73.03
2023-05-24T19:57:21.758Z,72.39
2023-05-24T19:59:48.896Z,70.99
2023-05-24T20:02:15.923Z,72.03
2023-05-24T20:04:44.150Z,71.27
2023-05-24T20:07:11.611Z,69.37
2023-05-24T20:09:39.008Z,67.31
2023-05-24T20:12:06.389Z,66.86
2023-05-24T20:14:33.433Z,66.64
2023-05-24T20:17:01.310Z,66.94
2023-05-24T20:19:29.455Z,66.67
2023-05-24T20:21:57.228Z,67.26
2023-05-24T20:24:24.254Z,67.45
2023-05-24T20:26:51.311Z,68.47
2023-05-24T20:29:18.409Z,67.77
2023-05-24T20:31:47.235Z,67.99
2023-05-24T20:34:14.422Z,65.03
2023-05-24T20:36:43.549Z,66.62
2023-05-24T20:39:11.012Z,69.39
2023-05-24T20:41:38.004Z,69.19
2023-05-24T20:44:05.063Z,67.83
2023-05-24T20:46:32.165Z,68.64
2023-05-24T20:48:59.572Z,69.37
2023-05-24T20:51:26.574Z,67.94
2023-05-24T20:53:53.622Z,67.64
2023-05-24T20:56:23.602Z,68.80
2023-05-24T20:58:53.191Z,69.36
2023-05-24T21:01:21.308Z,70.58
2023-05-24T21:03:48.511Z,70.05
2023-05-24T21:06:15.629Z,72.85
2023-05-24T21:08:43.550Z,76.50
2023-05-24T21:11:10.652Z,76.66
2023-05-24T21:13:37.891Z,77.04
2023-05-24T21:16:05.056Z,76.63
2023-05-24T21:18:33.469Z,77.60
2023-05-24T21:21:00.634Z,79.71
2023-05-24T21:23:27.655Z,81.15
2023-05-24T21:25:54.669Z,80.40
2023-05-24T21:28:21.755Z,80.73
2023-05-24T21:30:48.934Z,81.30
2023-05-24T21:33:16.687Z,81.62
2023-05-24T21:35:44.081Z,80.89
2023-05-24T21:38:11.375Z,79.77
2023-05-24T21:40:38.436Z,79.16
2023-05-24T21:43:05.596Z,79.17
2023-05-24T21:45:32.621Z,78.52
2023-05-24T21:47:59.715Z,78.39
2023-05-24T21:50:26.771Z,77.82
2023-05-24T21:52:53.845Z,77.68
2023-05-24T21:55:21.073Z,78.23
2023-05-24T21:57:48.135Z,79.13
2023-05-24T22:00:16.914Z,78.27
2023-05-24T22:02:44.064Z,77.88
2023-05-24T22:05:11.323Z,77.01
2023-05-24T22:07:38.584Z,76.70
2023-05-24T22:10:07.471Z,76.89
2023-05-24T22:12:35.234Z,76.50
2023-05-24T22:15:02.687Z,76.54
2023-05-24T22:17:32.721Z,76.00
2023-05-24T22:20:04.351Z,75.96
2023-05-24T22:22:31.540Z,77.54
2023-05-24T22:25:00.340Z,78.51
2023-05-24T22:27:27.580Z,78.25
2023-05-24T22:29:55.521Z,78.43
2023-05-24T22:32:22.866Z,78.42
2023-05-24T22:34:49.902Z,78.37
2023-05-24T22:37:17.122Z,78.24
2023-05-24T22:39:45.160Z,79.34
2023-05-24T22:42:12.220Z,79.15
2023-05-24T22:44:39.254Z,79.98
2023-05-24T22:47:06.342Z,80.00
2023-05-24T22:49:34.388Z,80.91
2023-05-24T22:52:01.855Z,81.37
2023-05-24T22:54:28.958Z,80.81
2023-05-24T22:56:56.886Z,80.62
2023-05-24T22:59:23.980Z,79.76
2023-05-24T23:01:51.260Z,79.30
2023-05-24T23:04:21.097Z,78.46
2023-05-24T23:06:53.370Z,77.72
2023-05-24T23:09:35.025Z,76.98
2023-05-24T23:12:08.477Z,76.82
2023-05-24T23:14:38.688Z,75.89
2023-05-24T23:17:06.852Z,77.69
2023-05-24T23:19:34.351Z,76.76
2023-05-24T23:22:03.559Z,76.71
2023-05-24T23:24:31.442Z,76.21
2023-05-24T23:26:58.491Z,76.73
2023-05-24T23:29:25.632Z,77.18
2023-05-24T23:31:52.745Z,77.06
2023-05-24T23:34:19.737Z,76.66
2023-05-24T23:36:46.744Z,76.96
2023-05-24T23:39:13.855Z,77.74
2023-05-24T23:41:40.907Z,78.12
2023-05-24T23:44:07.920Z,78.25
2023-05-24T23:46:36.121Z,78.27
2023-05-24T23:49:03.253Z,77.62
2023-05-24T23:51:33.327Z,77.42
2023-05-24T23:54:01.333Z,78.12
2023-05-24T23:56:28.423Z,78.58
2023-05-24T23:58:56.040Z,78.69
